»·PEaware :: XACAM KSBP-KSBP

XACAM :: KSBP-KSBP

FLIGHT INFORMATION

Flight Status: Arrived
Operator: Unknown
More flights by this operator :: More flights under this callsign
Pilot: Rafael C. (24230)
Aircraft: BEECH AIRCRAFT DEBONAIR BONANZA
(BE33)
More flights by this aircraft type
Origin: KSBP San Luis Co Regl
United States
Destination: KSBP San Luis Co Regl
United States
More flights between these airports :: More routes between these airports
Route: +
File this flight plan on PilotEdge
Remarks:
Altitude:
(Current/Filed)
0ft
Speed:
(Current/Filed)
0kts
Departed: 09-Feb-20 10:29 AM
Arrived: 09-Feb-20 11:30 AM
Distance/Time
Traveled:
0nm/1:01
Distance/Time
To Go:
Arrived

Flight Plot

Page will automatically refresh every two minutes.


Map Options




Map Legend


Flown Route
Filed Route
Departure Airport
Arrival Airport
Navaid (VOR, NDB)
Fix

Horizontal Profiles

Position Reports

Time Latitude Longitude Heading Altitude Ground
Speed
09-Feb-20 10:27 35.188598 -120.602571 34 1094ft 114kts
09-Feb-20 10:28 35.210129 -120.592913 306 965ft 78kts
09-Feb-20 10:30 35.223900 -120.617545 305 541ft 71kts
09-Feb-20 10:30 35.233049 -120.633518 305 258ft 66kts
09-Feb-20 10:31 35.244970 -120.654813 306 530ft 98kts
09-Feb-20 10:32 35.242892 -120.685595 216 1331ft 124kts
09-Feb-20 10:33 35.212061 -120.680102 123 1352ft 137kts
09-Feb-20 10:34 35.189205 -120.640857 122 1374ft 141kts
09-Feb-20 10:35 35.198546 -120.603214 33 1236ft 127kts
09-Feb-20 10:36 35.219796 -120.610034 306 782ft 83kts
09-Feb-20 10:37 35.231596 -120.631005 304 292ft 67kts
09-Feb-20 10:38 35.242824 -120.650543 311 412ft 97kts
09-Feb-20 10:39 35.242869 -120.680843 215 1281ft 125kts
09-Feb-20 10:40 35.209236 -120.676031 127 1529ft 144kts
09-Feb-20 10:41 35.184896 -120.636968 120 1474ft 142kts
09-Feb-20 10:42 35.191871 -120.601785 32 1257ft 118kts
09-Feb-20 10:43 35.214013 -120.600031 317 970ft 76kts
09-Feb-20 10:44 35.225931 -120.620951 310 538ft 71kts
09-Feb-20 10:45 35.236296 -120.639170 301 216ft 57kts
09-Feb-20 10:46 35.249130 -120.663726 297 965ft 93kts
09-Feb-20 10:47 35.230758 -120.688427 211 1253ft 119kts
09-Feb-20 10:48 35.206750 -120.666491 117 1427ft 120kts
09-Feb-20 10:49 35.190654 -120.631003 107 1603ft 115kts
09-Feb-20 10:50 35.202202 -120.603994 29 1383ft 81kts
09-Feb-20 10:51 35.220681 -120.611753 309 743ft 72kts
09-Feb-20 10:52 35.232041 -120.631755 306 291ft 69kts
09-Feb-20 10:53 35.244406 -120.652896 312 336ft 95kts
09-Feb-20 10:54 35.236134 -120.670386 147 769ft 88kts
09-Feb-20 10:55 35.232844 -120.673322 75 1093ft 114kts
09-Feb-20 10:56 35.211474 -120.647149 212 1248ft 125kts
09-Feb-20 10:57 35.220067 -120.651532 106 1288ft 124kts
09-Feb-20 10:58 35.202578 -120.617310 87 1373ft 95kts
09-Feb-20 10:59 35.220176 -120.610989 313 832ft 75kts
09-Feb-20 11:00 35.231826 -120.631356 307 290ft 70kts
09-Feb-20 11:01 35.244019 -120.653033 306 422ft 95kts
09-Feb-20 11:02 35.235796 -120.678555 175 831ft 113kts
09-Feb-20 11:03 35.214854 -120.653388 124 1022ft 106kts
09-Feb-20 11:04 35.200245 -120.622675 80 1026ft 104kts
09-Feb-20 11:05 35.217532 -120.609585 338 1016ft 73kts
09-Feb-20 11:06 35.230147 -120.628427 307 368ft 73kts
09-Feb-20 11:07 35.240706 -120.646875 309 259ft 86kts
09-Feb-20 11:08 35.249385 -120.674474 246 926ft 101kts
09-Feb-20 11:09 35.223344 -120.676735 124 1086ft 118kts
09-Feb-20 11:10 35.203794 -120.646319 123 1019ft 114kts
09-Feb-20 11:11 35.193771 -120.615688 49 1071ft 89kts
09-Feb-20 11:12 35.213091 -120.602840 342 1008ft 79kts
09-Feb-20 11:13 35.226546 -120.621995 305 518ft 74kts
09-Feb-20 11:14 35.236905 -120.640283 309 216ft 56kts
09-Feb-20 11:15 35.249989 -120.664525 304 716ft 91kts
09-Feb-20 11:16 35.234422 -120.683243 153 1103ft 107kts
09-Feb-20 11:17 35.214779 -120.656318 126 1209ft 108kts
09-Feb-20 11:18 35.196423 -120.627141 120 1172ft 108kts
09-Feb-20 11:19 35.206506 -120.601510 25 1136ft 79kts
09-Feb-20 11:20 35.221788 -120.613852 308 724ft 71kts
09-Feb-20 11:21 35.233172 -120.633726 305 259ft 66kts
09-Feb-20 11:22 35.244373 -120.653534 307 437ft 91kts
09-Feb-20 11:23 35.242559 -120.680011 215 924ft 107kts
09-Feb-20 11:24 35.218875 -120.664117 122 1126ft 106kts
09-Feb-20 11:25 35.201423 -120.634372 121 1042ft 108kts
09-Feb-20 11:26 35.205127 -120.606495 27 987ft 95kts
09-Feb-20 11:27 35.221667 -120.613487 305 706ft 68kts
09-Feb-20 11:28 35.232328 -120.632211 304 299ft 66kts
09-Feb-20 11:29 35.240644 -120.646859 303 215ft 21kts
09-Feb-20 11:30 35.239244 -120.647285 153 215ft 12kts
09-Feb-20 11:31 35.238429 -120.646782 84 215ft 0kts
09-Feb-20 11:32 35.238429 -120.646782 84 215ft 0kts
09-Feb-20 11:33 35.238429 -120.646782 84 215ft 0kts

Navigation Log

Ident Type
Flight plan parsing failed, navigation log unavailable